• Join FlightAware (Why Join?)
  • Login
  • US Flag 
10:25PM EST


 

Airport Tracker/Info


-or-


 

Live Flight TrackerFlight Track Log ✈ FLG4024 ✈ 01-Dec-2013 ✈ KDTW - KSAW

Flight Track Log - Related Links

Times and Time Zones

All times are in EST time to prevent confusion due to time zone crossing. See the FLG4024 flight status page for this flight to view local times or setup timezone preferences in your user account.

Time Position Orientation Groundspeed Altitude Reporting Facility
EST Latitude Longitude Course Direction KTS MPH feet Rate Location/Type
08:41PM 42.2258 -83.3558 21° North 162 186 1,100  Level Cleveland Center
08:41PM 42.2433 -83.3469 21° North 168 193 2,300 2,400 Climbing Cleveland Center
08:43PM 42.3053 -83.3303 11° North 222 255 4,800 1,920 Climbing Cleveland Center
08:43PM 42.3078 -83.3286 26° Northeast 211 243 4,900 1,860 Climbing Cleveland Center
08:44PM 42.3775 -83.3028 15° North 247 284 7,100 2,700 Climbing Cleveland Center
08:45PM 42.4672 -83.2917 North 279 321 10,500 2,460 Climbing Cleveland Center
08:46PM 42.5517 -83.3061 353° North 304 350 12,200 1,800 Climbing Cleveland Center
08:47PM 42.6450 -83.3206 354° North 333 383 14,300 1,980 Climbing Cleveland Center
08:48PM 42.7411 -83.3367 353° North 345 397 16,400 1,740 Climbing Cleveland Center
08:49PM 42.8383 -83.3517 354° North 351 404 17,900 1,620 Climbing Cleveland Center
08:50PM 42.9458 -83.4156 336° Northwest 360 414 19,800 1,620 Climbing Cleveland Center
08:51PM 43.0222 -83.5017 321° Northwest 359 413 21,300 1,320 Climbing Cleveland Center
08:52PM 43.1014 -83.5883 321° Northwest 364 419 22,600 960 Climbing Cleveland Center
08:53PM 43.1822 -83.6772 321° Northwest 371 427 23,300 540 Climbing Cleveland Center
08:54PM 43.2669 -83.7739 320° Northwest 391 450 23,800 480 Climbing Cleveland Center
08:55PM 43.3539 -83.8708 321° Northwest 402 463 24,300 480 Climbing Cleveland Center
08:56PM 43.4606 -83.9922 320° Northwest 413 475 24,900 540 Climbing Cleveland Center
08:57PM 43.5539 -84.1000 320° Northwest 416 479 25,500 480 Climbing Cleveland Center
08:58PM 43.6383 -84.2086 317° Northwest 418 481 26,000 240 Climbing Cleveland Center
08:59PM 43.7247 -84.3189 317° Northwest 423 487 26,000  Level Cleveland Center
09:00PM 43.8131 -84.4297 318° Northwest 429 494 26,000  Level Cleveland Center
09:01PM 43.9017 -84.5433 317° Northwest 434 499 26,000  Level Cleveland Center
09:02PM 44.0081 -84.6800 317° Northwest 437 503 26,000  Level Cleveland Center
09:03PM 44.0953 -84.7922 317° Northwest 431 496 26,000  Level Cleveland Center
09:05PM 44.1828 -84.9075 317° Northwest 434 499 26,000  Level Cleveland Center
09:06PM 44.2708 -85.0197 318° Northwest 432 497 26,000  Level Cleveland Center
09:07PM 44.3581 -85.1356 317° Northwest 434 499 26,000  Level Cleveland Center
09:08PM 44.4458 -85.2508 317° Northwest 435 501 26,000  Level Cleveland Center
09:09PM 44.5797 -85.4278 317° Northwest 435 501 26,000  Level Minneapolis Center
09:10PM 44.6681 -85.5444 317° Northwest 437 503 26,000  Level Minneapolis Center
09:11PM 44.7747 -85.6600 322° Northwest 440 506 26,000  Level Minneapolis Center
09:12PM 44.8697 -85.7606 323° Northwest 444 511 26,000  Level Minneapolis Center
09:13PM 44.9675 -85.8639 323° Northwest 444 511 26,000  Level Minneapolis Center
09:14PM 45.0669 -85.9694 323° Northwest 446 513 26,000  Level Minneapolis Center
09:15PM 45.1728 -86.0831 323° Northwest 444 511 26,000  Level Minneapolis Center
09:16PM 45.2708 -86.1883 323° Northwest 444 511 26,000 -240 Level Minneapolis Center
09:17PM 45.3883 -86.3158 323° Northwest 446 513 25,500 -720 Descending Minneapolis Center
09:18PM 45.4825 -86.4172 323° Northwest 431 496 24,500 -1,020 Descending Minneapolis Center
09:19PM 45.5731 -86.5200 322° Northwest 421 484 23,500 -1,380 Descending Minneapolis Center
09:20PM 45.6658 -86.6194 323° Northwest 418 481 21,700 -2,280 Descending Minneapolis Center
09:21PM 45.7572 -86.7203 322° Northwest 417 480 18,900 -3,360 Descending Minneapolis Center
09:22PM 45.8578 -86.8311 323° Northwest 382 440 14,900 -3,660 Descending Minneapolis Center
09:23PM 45.9394 -86.9189 323° Northwest 362 417 11,400 -2,460 Descending Minneapolis Center
09:25PM 46.0067 -86.9967 321° Northwest 298 343 9,900 -1,620 Descending Minneapolis Center
09:26PM 46.0653 -87.0631 322° Northwest 265 305 8,200 -1,740 Descending Minneapolis Center
09:27PM 46.1228 -87.1286 322° Northwest 260 299 6,400 -1,740 Descending Minneapolis Center
09:28PM 46.1811 -87.1950 322° Northwest 262 302 4,700 -1,320 Descending Minneapolis Center
09:29PM 46.2350 -87.2558 322° Northwest 248 285 3,700 -540 Descending Minneapolis Center
09:30PM 46.2303 -87.3169 264° West 208 239 3,700  Level Minneapolis Center
09:31PM 46.1717 -87.3553 204° Southwest 209 241 3,700  Level Minneapolis Center
09:32PM 46.1586 -87.4281 256° West 196 226 3,700  Level Minneapolis Center
09:33PM 46.2083 -87.4286 360° North 193 222 3,700 -420 Level Minneapolis Center
09:34PM 46.2619 -87.4161 North 192 221 2,900 -900 Descending Minneapolis Center
09:35PM 46.3064 -87.4061 North 164 189 1,900 -840 Descending Minneapolis Center
09:36PM 46.3431 -87.3981 North 144 166 1,200 -720 Descending Minneapolis Center